Terminal Aerodrome Forecast
Issued by NWS Mt. Holly, NJ

Home | Current Version | Previous Version | Text Only | Print | Product List | Glossary On
Versions: 1 2 3 4 5 6 7 8 9 10 11 12 13 14 15 16 17 18 19 20 21
000
FTUS41 KPHI 221728
TAFTTN
TAF
KTTN 221728Z 2218/2318 30014G24KT P6SM SCT070
      TEMPO 2218/2222 -SHRA BKN070
     FM230000 32009G18KT P6SM SKC
     FM230700 35008KT P6SM SKC
     FM231600 29006KT P6SM SCT250=

USA.gov is the U.S. government's official web portal to all federal, state and local government web resources and services.